Time;durP1;ratioP1;P1;durP2;ratioP2;P2;SDS_P1;SDS_P2;PMS_P1;PMS_P2;Temp;Humidity;BMP_temperature;BMP_pressure;BME280_temperature;BME280_humidity;BME280_pressure;Samples;Min_cycle;Max_cycle;Signal;HPM_P1;HPM_P2
2023/05/23 00:01:26;;;;;;;27.00;8.03;;;21.20;56.60;;;;;;5067562;28;20710;-90
2023/05/23 00:03:54;;;;;;;32.30;8.63;;;21.10;56.60;;;;;;5068151;28;20572;-91
2023/05/23 00:06:22;;;;;;;50.20;9.83;;;21.10;56.60;;;;;;5068917;28;20653;-90
2023/05/23 00:08:49;;;;;;;52.23;10.10;;;21.20;56.70;;;;;;5080797;28;20291;-90
2023/05/23 00:11:18;;;;;;;50.80;9.97;;;21.10;56.60;;;;;;5088205;28;20203;-89
2023/05/23 00:13:45;;;;;;;44.03;9.43;;;21.10;56.70;;;;;;5071407;28;20227;-90
2023/05/23 00:16:12;;;;;;;39.27;8.73;;;21.10;56.70;;;;;;5067397;28;20687;-90
2023/05/23 00:18:41;;;;;;;48.80;10.07;;;21.10;56.60;;;;;;5067802;28;20256;-90
2023/05/23 00:21:09;;;;;;;39.03;8.97;;;21.10;56.70;;;;;;5067589;28;20202;-90
2023/05/23 00:23:37;;;;;;;42.50;9.70;;;21.10;56.60;;;;;;5081844;28;20208;-90
2023/05/23 00:26:04;;;;;;;41.23;8.73;;;21.10;56.60;;;;;;5081621;28;20804;-90
2023/05/23 00:28:31;;;;;;;57.57;10.27;;;21.10;56.60;;;;;;5081844;28;20298;-90
2023/05/23 00:30:58;;;;;;;35.37;8.57;;;21.00;56.60;;;;;;5071343;28;20251;-89
2023/05/23 00:33:25;;;;;;;31.87;9.53;;;21.00;56.60;;;;;;5072004;28;20283;-90
2023/05/23 00:35:53;;;;;;;30.00;8.90;;;21.10;56.70;;;;;;5071516;28;20310;-90
2023/05/23 00:38:20;;;;;;;32.80;8.23;;;21.00;56.60;;;;;;5071939;28;20298;-90
2023/05/23 00:40:48;;;;;;;37.50;8.77;;;21.00;56.60;;;;;;5071420;28;20231;-91
2023/05/23 00:43:15;;;;;;;36.03;8.60;;;21.00;56.60;;;;;;5071125;28;20674;-90
2023/05/23 00:45:42;;;;;;;38.27;9.57;;;21.00;56.60;;;;;;5070796;28;20204;-91
2023/05/23 00:48:08;;;;;;;47.97;9.87;;;21.00;56.60;;;;;;5072131;28;20578;-91
2023/05/23 00:50:36;;;;;;;34.93;8.40;;;21.00;56.70;;;;;;5087368;28;20624;-90
2023/05/23 00:53:04;;;;;;;62.57;10.47;;;21.00;56.70;;;;;;5100244;28;20703;-90
2023/05/23 00:55:31;;;;;;;37.47;9.50;;;21.00;56.70;;;;;;5091138;28;20232;-89
2023/05/23 00:57:58;;;;;;;40.77;8.97;;;21.00;56.70;;;;;;5096299;28;20270;-90
2023/05/23 01:00:27;;;;;;;50.10;9.97;;;21.00;56.70;;;;;;5090593;28;20192;-89
2023/05/23 01:02:53;;;;;;;56.77;10.43;;;21.00;56.70;;;;;;5090050;28;20265;-90
2023/05/23 01:05:23;;;;;;;52.93;10.57;;;20.90;56.70;;;;;;5073265;28;20282;-89
2023/05/23 01:07:51;;;;;;;44.77;9.73;;;21.00;56.70;;;;;;5080567;28;20222;-90
2023/05/23 01:10:23;;;;;;;44.40;9.20;;;20.90;56.70;;;;;;5072447;28;20713;-89
2023/05/23 01:13:01;;;;;;;44.03;9.57;;;21.00;56.80;;;;;;5071629;28;20310;-89
2023/05/23 01:15:37;;;;;;;37.03;8.60;;;20.90;56.70;;;;;;5071744;28;20240;-90
2023/05/23 01:18:09;;;;;;;38.47;8.43;;;20.90;56.90;;;;;;5071586;28;20227;-90
2023/05/23 01:20:46;;;;;;;49.70;9.83;;;20.90;56.80;;;;;;5071526;28;20646;-90
2023/05/23 01:23:46;;;;;;;43.93;9.03;;;20.90;56.70;;;;;;5071671;28;20202;-90
2023/05/23 01:26:40;;;;;;;39.30;8.90;;;20.90;56.80;;;;;;5043839;28;20204;-89
2023/05/23 01:29:13;;;;;;;40.57;9.30;;;20.90;56.80;;;;;;5070449;28;20231;-89
2023/05/23 01:31:44;;;;;;;41.83;9.03;;;20.90;56.80;;;;;;5070881;28;20209;-90
2023/05/23 01:34:13;;;;;;;50.10;9.70;;;20.90;56.80;;;;;;5069610;28;20213;-89
2023/05/23 01:36:42;;;;;;;42.90;9.97;;;20.80;56.80;;;;;;5069646;28;20559;-89
2023/05/23 01:39:10;;;;;;;37.60;9.07;;;20.90;56.90;;;;;;5083690;28;20277;-89
2023/05/23 01:41:37;;;;;;;42.87;9.33;;;20.80;56.80;;;;;;5090076;28;20213;-89
2023/05/23 01:44:05;;;;;;;44.43;9.60;;;20.90;56.90;;;;;;5088102;28;20720;-89
2023/05/23 01:46:35;;;;;;;61.07;10.57;;;20.80;56.80;;;;;;5076875;28;20240;-89
2023/05/23 01:49:03;;;;;;;44.97;9.47;;;20.80;57.40;;;;;;5069454;28;20301;-89
2023/05/23 01:51:30;;;;;;;42.63;9.20;;;20.80;56.80;;;;;;5069739;28;20206;-91
2023/05/23 01:53:58;;;;;;;42.27;9.23;;;20.80;56.80;;;;;;5069959;28;20219;-90
2023/05/23 01:56:26;;;;;;;39.03;8.87;;;20.80;56.80;;;;;;5082834;28;20721;-90
2023/05/23 01:58:53;;;;;;;32.37;8.40;;;20.80;56.80;;;;;;5089631;28;20223;-90
2023/05/23 02:01:20;;;;;;;45.63;9.43;;;20.70;56.70;;;;;;5082421;28;20207;-89
2023/05/23 02:03:49;;;;;;;34.77;8.33;;;20.80;56.80;;;;;;5076504;28;20727;-91
2023/05/23 02:06:16;;;;;;;58.20;10.23;;;20.70;56.70;;;;;;5083653;28;20607;-90
2023/05/23 02:08:43;;;;;;;48.73;10.07;;;20.80;56.80;;;;;;5088166;28;20532;-89
2023/05/23 02:11:10;;;;;;;57.77;10.77;;;20.80;56.90;;;;;;5086484;28;20702;-90
2023/05/23 02:13:37;;;;;;;42.27;9.30;;;20.80;56.90;;;;;;5087266;28;20785;-90
2023/05/23 02:16:14;;;;;;;63.67;11.17;;;20.70;56.80;;;;;;5087473;28;20613;-89
2023/05/23 02:18:41;;;;;;;38.20;9.37;;;20.80;56.90;;;;;;5068536;28;20648;-89
2023/05/23 02:21:09;;;;;;;35.37;8.83;;;20.80;56.90;;;;;;5069124;28;20993;-88
2023/05/23 02:23:36;;;;;;;43.20;9.07;;;20.80;56.90;;;;;;5068375;28;20203;-88
2023/05/23 02:26:04;;;;;;;53.03;10.10;;;20.70;56.80;;;;;;5069537;28;20681;-88
2023/05/23 02:28:31;;;;;;;32.07;8.13;;;20.70;56.80;;;;;;5069335;28;20295;-88
2023/05/23 02:30:58;;;;;;;38.07;9.03;;;20.70;56.80;;;;;;5069289;28;20207;-88
2023/05/23 02:33:25;;;;;;;31.07;7.93;;;20.70;56.90;;;;;;5068370;28;20565;-88
2023/05/23 02:35:54;;;;;;;37.53;8.07;;;20.70;56.90;;;;;;5084608;28;20197;-87
2023/05/23 02:38:22;;;;;;;41.27;9.60;;;20.70;56.90;;;;;;5068024;28;20231;-87
2023/05/23 02:40:50;;;;;;;42.90;9.13;;;20.70;56.90;;;;;;5068524;28;20278;-88
2023/05/23 02:43:17;;;;;;;44.10;8.93;;;20.70;56.90;;;;;;5071817;28;20674;-88
2023/05/23 02:45:44;;;;;;;36.67;8.97;;;20.70;56.90;;;;;;5088878;28;20293;-87
2023/05/23 02:48:11;;;;;;;43.33;9.80;;;20.70;56.90;;;;;;5088491;28;20246;-89
2023/05/23 02:50:38;;;;;;;41.33;8.90;;;20.60;56.80;;;;;;5087965;28;20206;-88
2023/05/23 02:53:05;;;;;;;31.97;8.23;;;20.60;56.80;;;;;;5085283;28;20202;-88
2023/05/23 02:55:37;;;;;;;37.30;8.60;;;20.70;56.90;;;;;;5088741;28;20685;-88
2023/05/23 02:58:04;;;;;;;25.53;7.63;;;20.70;57.00;;;;;;5088882;28;20287;-89
2023/05/23 03:00:34;;;;;;;39.70;9.20;;;20.70;56.90;;;;;;5089033;28;20203;-88
2023/05/23 03:03:01;;;;;;;40.37;8.90;;;20.60;56.80;;;;;;5074939;28;20609;-90
2023/05/23 03:05:28;;;;;;;36.10;8.87;;;20.60;56.90;;;;;;5068097;28;20723;-88
2023/05/23 03:07:59;;;;;;;41.37;8.77;;;20.60;56.90;;;;;;5083846;28;20290;-89
2023/05/23 03:10:26;;;;;;;39.13;9.43;;;20.60;56.90;;;;;;5088370;28;20215;-89
2023/05/23 03:12:54;;;;;;;48.10;9.40;;;20.60;56.90;;;;;;5084375;28;20228;-90
2023/05/23 03:15:21;;;;;;;47.07;9.87;;;20.60;56.90;;;;;;5079150;28;20207;-90
2023/05/23 03:17:48;;;;;;;39.13;8.70;;;20.60;56.90;;;;;;5068307;28;20345;-88
2023/05/23 03:20:15;;;;;;;48.27;9.27;;;20.60;56.90;;;;;;5073943;28;20276;-89
2023/05/23 03:22:44;;;;;;;32.03;8.23;;;20.50;56.80;;;;;;5081403;28;20670;-89
2023/05/23 03:25:11;;;;;;;50.80;9.33;;;20.50;56.80;;;;;;5082459;28;20191;-90
2023/05/23 03:27:38;;;;;;;40.97;9.10;;;20.60;56.90;;;;;;5087058;28;20294;-89
2023/05/23 03:30:08;;;;;;;38.53;9.20;;;20.50;56.80;;;;;;5088390;28;20210;-89
2023/05/23 03:32:35;;;;;;;40.70;9.53;;;20.50;56.80;;;;;;5086916;28;20293;-89
2023/05/23 03:35:02;;;;;;;33.43;8.07;;;20.50;57.40;;;;;;5082152;28;20830;-90
2023/05/23 03:37:29;;;;;;;54.00;10.03;;;20.50;56.80;;;;;;5067557;28;20304;-90
2023/05/23 03:39:56;;;;;;;30.07;8.43;;;20.50;56.90;;;;;;5068014;28;20675;-90
2023/05/23 03:42:23;;;;;;;41.60;8.80;;;20.50;56.80;;;;;;5068049;28;20207;-90
2023/05/23 03:44:50;;;;;;;43.07;9.50;;;20.50;56.80;;;;;;5066547;28;20227;-90
2023/05/23 03:47:18;;;;;;;37.67;8.73;;;20.50;56.90;;;;;;5067850;28;20294;-89
2023/05/23 03:49:45;;;;;;;53.33;10.00;;;20.50;56.90;;;;;;5082633;28;20210;-90
2023/05/23 03:52:12;;;;;;;39.73;8.80;;;20.50;56.90;;;;;;5068616;28;20285;-89
2023/05/23 03:54:39;;;;;;;36.20;8.60;;;20.50;56.90;;;;;;5067895;28;20284;-89
2023/05/23 03:57:06;;;;;;;49.90;9.67;;;20.50;56.90;;;;;;5080400;28;20213;-90
2023/05/23 03:59:33;;;;;;;34.40;8.20;;;20.40;56.80;;;;;;5087675;28;20777;-89
2023/05/23 04:02:01;;;;;;;47.70;8.93;;;20.40;56.80;;;;;;5086208;28;20218;-89
2023/05/23 04:04:29;;;;;;;44.50;9.60;;;20.40;56.80;;;;;;5088210;28;20619;-90
2023/05/23 04:06:57;;;;;;;31.57;8.47;;;20.40;56.80;;;;;;5067236;28;20356;-90
2023/05/23 04:09:26;;;;;;;28.00;7.97;;;20.40;56.80;;;;;;5067341;28;20244;-89
2023/05/23 04:11:53;;;;;;;31.30;8.37;;;20.40;56.80;;;;;;5067665;28;20223;-89
2023/05/23 04:14:21;;;;;;;37.00;8.70;;;20.40;56.80;;;;;;5068080;28;20639;-89
2023/05/23 04:16:49;;;;;;;27.30;8.10;;;20.40;56.80;;;;;;5074058;28;20201;-89
2023/05/23 04:19:16;;;;;;;47.03;9.97;;;20.40;56.90;;;;;;5087515;28;20301;-91
2023/05/23 04:21:47;;;;;;;48.63;9.27;;;20.40;56.90;;;;;;5087246;28;20287;-90
2023/05/23 04:24:14;;;;;;;35.70;8.70;;;20.40;56.90;;;;;;5087857;28;20291;-89
2023/05/23 04:26:41;;;;;;;40.77;9.03;;;20.40;56.80;;;;;;5086335;28;20744;-89
2023/05/23 04:29:10;;;;;;;42.03;9.47;;;20.40;56.90;;;;;;5086485;28;20219;-90
2023/05/23 04:31:38;;;;;;;43.07;9.40;;;20.40;56.90;;;;;;5087088;28;20694;-90
2023/05/23 04:34:06;;;;;;;41.20;9.10;;;20.40;56.90;;;;;;5078367;28;20207;-90
2023/05/23 04:36:36;;;;;;;67.40;11.17;;;20.30;56.80;;;;;;5083272;28;20207;-90
2023/05/23 04:39:05;;;;;;;32.63;8.77;;;20.40;56.90;;;;;;5075386;28;20218;-90
2023/05/23 04:41:32;;;;;;;29.93;7.87;;;20.30;56.80;;;;;;5091328;28;20294;-90
2023/05/23 04:43:59;;;;;;;33.70;8.70;;;20.30;56.80;;;;;;5091424;28;20278;-90
2023/05/23 04:46:26;;;;;;;36.57;8.07;;;20.30;56.80;;;;;;5088357;28;20290;-89
2023/05/23 04:48:53;;;;;;;35.40;8.93;;;20.30;56.80;;;;;;5086354;28;20239;-89
2023/05/23 04:51:21;;;;;;;25.13;7.70;;;20.30;56.80;;;;;;5087932;28;20206;-88
2023/05/23 04:53:48;;;;;;;32.83;8.87;;;20.40;56.90;;;;;;5088050;28;20209;-88
2023/05/23 04:56:19;;;;;;;49.90;9.97;;;20.30;56.90;;;;;;5086788;28;20690;-88
2023/05/23 04:58:47;;;;;;;33.53;9.13;;;20.30;56.80;;;;;;5067055;28;20346;-88
2023/05/23 05:01:14;;;;;;;39.97;8.70;;;20.30;56.80;;;;;;5073715;28;20276;-89
2023/05/23 05:03:41;;;;;;;44.40;8.40;;;20.30;56.80;;;;;;5073892;28;20207;-89
2023/05/23 05:06:08;;;;;;;35.03;8.57;;;20.30;56.90;;;;;;5066744;28;20579;-88
2023/05/23 05:08:36;;;;;;;40.00;9.23;;;20.30;56.90;;;;;;5067094;28;20287;-90
2023/05/23 05:11:03;;;;;;;34.77;8.57;;;20.20;57.40;;;;;;5087219;28;20216;-87
2023/05/23 05:13:31;;;;;;;33.10;8.33;;;20.20;56.80;;;;;;5089908;28;20876;-88
2023/05/23 05:15:58;;;;;;;43.53;9.17;;;20.20;56.80;;;;;;5078578;28;20290;-88
2023/05/23 05:18:27;;;;;;;33.93;8.77;;;20.30;56.90;;;;;;5070613;28;20314;-88
2023/05/23 05:20:53;;;;;;;29.67;8.47;;;20.30;56.90;;;;;;5070005;28;20221;-88
2023/05/23 05:23:22;;;;;;;39.10;8.97;;;20.20;56.80;;;;;;5071079;28;20235;-87
2023/05/23 05:25:49;;;;;;;39.70;9.47;;;20.20;56.80;;;;;;5070902;28;20192;-88
2023/05/23 05:28:16;;;;;;;41.10;9.13;;;20.20;56.80;;;;;;5072531;28;20203;-88
2023/05/23 05:30:45;;;;;;;43.57;9.73;;;20.20;56.80;;;;;;5090766;28;20300;-87
2023/05/23 05:33:12;;;;;;;38.63;9.07;;;20.20;56.80;;;;;;5076900;28;20304;-87
2023/05/23 05:35:39;;;;;;;34.37;8.47;;;20.20;56.80;;;;;;5090373;28;20730;-88
2023/05/23 05:38:07;;;;;;;42.20;9.50;;;20.20;56.80;;;;;;5090447;28;20218;-87
2023/05/23 05:40:34;;;;;;;42.03;9.53;;;20.20;56.80;;;;;;5089086;28;20210;-87
2023/05/23 05:43:01;;;;;;;33.90;8.37;;;20.20;56.80;;;;;;5081595;28;20199;-87
2023/05/23 05:45:28;;;;;;;32.60;8.37;;;20.10;56.80;;;;;;5090544;28;20289;-87
2023/05/23 05:47:56;;;;;;;30.33;7.93;;;20.10;56.80;;;;;;5084818;28;20298;-88
2023/05/23 05:50:23;;;;;;;31.47;8.63;;;20.10;56.80;;;;;;5072990;28;20635;-86
2023/05/23 05:52:50;;;;;;;29.67;8.20;;;20.10;56.80;;;;;;5070098;28;20201;-86
2023/05/23 05:55:17;;;;;;;29.57;8.07;;;20.10;56.80;;;;;;5072395;28;20289;-87
2023/05/23 05:57:44;;;;;;;37.37;9.03;;;20.10;56.80;;;;;;5089914;28;20293;-87
2023/05/23 06:00:14;;;;;;;44.27;9.27;;;20.10;56.80;;;;;;5087337;28;20294;-88
2023/05/23 06:02:41;;;;;;;42.93;9.33;;;20.10;56.80;;;;;;5079874;28;20268;-91
2023/05/23 06:05:12;;;;;;;39.77;9.40;;;20.10;56.80;;;;;;5090256;28;20619;-87
2023/05/23 06:07:39;;;;;;;47.03;9.10;;;20.10;56.80;;;;;;5074543;28;20208;-90
2023/05/23 06:10:07;;;;;;;46.67;9.77;;;20.10;56.80;;;;;;5083013;28;20288;-87
2023/05/23 06:12:34;;;;;;;34.00;8.43;;;20.10;56.80;;;;;;5090022;28;20191;-87
2023/05/23 06:15:01;;;;;;;38.23;8.50;;;20.10;56.80;;;;;;5089960;28;20681;-86
2023/05/23 06:17:28;;;;;;;36.40;9.00;;;20.10;56.80;;;;;;5089352;28;20248;-89
2023/05/23 06:19:55;;;;;;;31.07;8.87;;;20.10;56.80;;;;;;5072225;28;20227;-88
2023/05/23 06:22:24;;;;;;;34.30;8.43;;;20.10;56.80;;;;;;5069474;28;20314;-86
2023/05/23 06:24:51;;;;;;;32.13;8.33;;;20.00;56.70;;;;;;5069747;28;20591;-87
2023/05/23 06:27:18;;;;;;;29.10;8.70;;;20.10;56.80;;;;;;5077819;28;20207;-85
2023/05/23 06:29:44;;;;;;;31.93;8.67;;;20.00;56.70;;;;;;5075425;28;20290;-87
2023/05/23 06:32:11;;;;;;;35.20;8.87;;;20.00;56.70;;;;;;5069409;28;20196;-86
2023/05/23 06:34:38;;;;;;;37.30;8.73;;;20.00;56.70;;;;;;5070639;28;20283;-86
2023/05/23 06:37:05;;;;;;;36.63;8.70;;;20.00;56.70;;;;;;5073097;28;20282;-86
2023/05/23 06:39:34;;;;;;;30.20;7.83;;;20.00;56.80;;;;;;5089473;28;20981;-86
2023/05/23 06:42:01;;;;;;;30.70;8.73;;;20.00;56.80;;;;;;5089553;28;20265;-86
2023/05/23 06:44:28;;;;;;;35.30;8.77;;;20.00;56.70;;;;;;5072844;28;20283;-86
2023/05/23 06:46:57;;;;;;;49.50;9.80;;;20.00;57.30;;;;;;5067189;28;20261;-86
2023/05/23 06:49:24;;;;;;;34.00;8.47;;;20.00;56.80;;;;;;5056454;28;20211;-87
2023/05/23 06:51:52;;;;;;;28.07;7.70;;;20.00;56.80;;;;;;5076932;28;20616;-88
2023/05/23 06:54:19;;;;;;;35.83;8.03;;;20.00;57.40;;;;;;5069259;28;20567;-88
2023/05/23 06:56:47;;;;;;;32.00;8.07;;;20.00;56.80;;;;;;5069151;28;20275;-87
2023/05/23 06:59:14;;;;;;;41.43;8.83;;;20.00;56.80;;;;;;5078918;28;20326;-86
2023/05/23 07:01:41;;;;;;;42.37;8.93;;;19.90;56.70;;;;;;5086647;28;20337;-86
2023/05/23 07:04:08;;;;;;;27.93;7.33;;;19.90;56.70;;;;;;5069442;28;20294;-85
2023/05/23 07:06:36;;;;;;;30.50;7.37;;;19.90;56.70;;;;;;5068648;28;20645;-86
2023/05/23 07:09:03;;;;;;;26.37;6.70;;;20.00;56.80;;;;;;5068660;28;20211;-88
2023/05/23 07:11:30;;;;;;;41.27;7.90;;;19.90;56.70;;;;;;5068667;28;20571;-86
2023/05/23 07:13:59;;;;;;;33.53;7.67;;;19.90;56.70;;;;;;5069029;28;20302;-85
2023/05/23 07:16:26;;;;;;;36.97;7.90;;;19.90;56.70;;;;;;5084643;28;20205;-90
2023/05/23 07:18:53;;;;;;;24.73;6.60;;;19.90;56.70;;;;;;5089068;28;20226;-90
2023/05/23 07:21:20;;;;;;;35.83;8.03;;;19.90;56.70;;;;;;5084802;28;20281;-88
2023/05/23 07:23:47;;;;;;;23.83;6.87;;;19.90;57.30;;;;;;5080881;28;20619;-87
2023/05/23 07:26:14;;;;;;;50.57;8.87;;;19.90;56.70;;;;;;5087729;28;20198;-87
2023/05/23 07:28:41;;;;;;;35.23;7.50;;;19.90;56.70;;;;;;5088026;28;20253;-86
2023/05/23 07:31:10;;;;;;;35.57;7.20;;;19.90;56.70;;;;;;5071205;28;20203;-86
2023/05/23 07:33:37;;;;;;;40.43;7.23;;;19.90;56.70;;;;;;5085785;28;20202;-86
2023/05/23 07:36:04;;;;;;;27.37;6.83;;;19.90;56.70;;;;;;5087867;28;20199;-86
2023/05/23 07:38:31;;;;;;;34.40;7.47;;;19.90;56.70;;;;;;5086402;28;20211;-86
2023/05/23 07:40:58;;;;;;;34.30;6.90;;;19.90;56.70;;;;;;5075637;28;20256;-86
2023/05/23 07:43:25;;;;;;;37.87;6.90;;;19.90;56.70;;;;;;5067870;28;20234;-86
2023/05/23 07:45:52;;;;;;;24.73;5.93;;;19.90;56.80;;;;;;5087449;28;20278;-86
2023/05/23 07:48:21;;;;;;;28.67;6.23;;;19.80;56.60;;;;;;5088606;28;20326;-86
2023/05/23 07:50:48;;;;;;;27.77;6.03;;;19.90;56.70;;;;;;5083724;28;20206;-87
2023/05/23 07:53:15;;;;;;;33.03;6.50;;;19.90;56.70;;;;;;5088346;28;20203;-87
2023/05/23 07:55:42;;;;;;;38.23;7.13;;;19.90;56.70;;;;;;5088028;28;20278;-87
2023/05/23 07:58:08;;;;;;;41.97;7.00;;;19.90;56.70;;;;;;5087886;28;20294;-87
2023/05/23 08:00:35;;;;;;;33.60;6.63;;;19.80;56.70;;;;;;5085748;28;20317;-87
2023/05/23 08:03:03;;;;;;;35.33;6.87;;;19.90;56.70;;;;;;5086102;28;20234;-87
2023/05/23 08:05:31;;;;;;;42.67;7.53;;;19.90;56.70;;;;;;5085461;28;20205;-86
2023/05/23 08:07:58;;;;;;;46.73;7.63;;;19.80;57.00;;;;;;5070187;28;20287;-87
2023/05/23 08:10:27;;;;;;;42.03;7.00;;;19.80;56.70;;;;;;5076626;28;20255;-87
2023/05/23 08:12:54;;;;;;;32.27;6.47;;;19.80;56.70;;;;;;5078332;28;20742;-87
2023/05/23 08:15:22;;;;;;;33.67;6.60;;;19.80;56.70;;;;;;5075384;28;20733;-87
2023/05/23 08:17:49;;;;;;;27.87;5.97;;;19.80;56.70;;;;;;5067760;28;20200;-88
2023/05/23 08:20:16;;;;;;;34.20;6.43;;;19.80;56.70;;;;;;5068168;28;20246;-86
2023/05/23 08:22:44;;;;;;;28.87;5.90;;;19.80;56.70;;;;;;5068367;28;20226;-86
2023/05/23 08:25:11;;;;;;;34.17;6.63;;;19.80;56.70;;;;;;5070196;28;20276;-87
2023/05/23 08:27:38;;;;;;;64.37;8.90;;;19.80;56.70;;;;;;5067943;28;20282;-87
2023/05/23 08:30:07;;;;;;;41.80;7.13;;;19.80;56.70;;;;;;5085307;28;20626;-87
2023/05/23 08:32:34;;;;;;;46.33;7.90;;;19.80;56.70;;;;;;5086645;28;20194;-88
2023/05/23 08:35:01;;;;;;;28.17;5.80;;;19.80;56.70;;;;;;5071643;28;20326;-88
2023/05/23 08:37:28;;;;;;;39.27;7.00;;;19.80;56.70;;;;;;5067942;28;20278;-87
2023/05/23 08:39:56;;;;;;;33.57;6.87;;;19.80;56.70;;;;;;5066570;28;20235;-87
2023/05/23 08:42:23;;;;;;;32.00;6.63;;;19.80;56.70;;;;;;5067862;28;20293;-87
2023/05/23 08:44:50;;;;;;;29.93;6.20;;;19.80;56.70;;;;;;5067525;28;20229;-89
2023/05/23 08:47:18;;;;;;;21.47;5.07;;;19.80;56.70;;;;;;5068691;28;20314;-89
2023/05/23 08:49:45;;;;;;;28.23;6.10;;;19.80;56.70;;;;;;5072827;28;20207;-86
2023/05/23 08:52:14;;;;;;;25.10;5.60;;;19.80;56.70;;;;;;5083057;28;20206;-86
2023/05/23 08:54:42;;;;;;;32.40;6.23;;;19.80;56.70;;;;;;5091752;28;20318;-86
2023/05/23 08:57:10;;;;;;;31.83;6.43;;;19.80;56.70;;;;;;5092137;28;20686;-86
2023/05/23 08:59:39;;;;;;;25.80;5.83;;;19.80;56.70;;;;;;5078201;28;20370;-86
2023/05/23 09:02:10;;;;;;;31.20;6.47;;;19.80;56.70;;;;;;5076350;28;20199;-86
2023/05/23 09:04:37;;;;;;;26.73;6.30;;;19.80;56.70;;;;;;5080808;28;20202;-86
2023/05/23 09:07:05;;;;;;;22.27;5.70;;;19.80;56.70;;;;;;5075029;28;20604;-86
2023/05/23 09:09:32;;;;;;;25.60;6.00;;;19.90;56.80;;;;;;5070493;28;21028;-86
2023/05/23 09:11:59;;;;;;;53.57;8.37;;;19.90;56.80;;;;;;5080714;28;20282;-87
2023/05/23 09:14:30;;;;;;;37.87;7.10;;;19.80;56.70;;;;;;5079237;28;20198;-87
2023/05/23 09:17:02;;;;;;;39.80;7.10;;;19.80;56.70;;;;;;5076261;28;20250;-86
2023/05/23 09:19:29;;;;;;;34.83;6.83;;;19.90;56.80;;;;;;5075330;28;20311;-86
2023/05/23 09:21:56;;;;;;;35.10;7.07;;;19.90;56.80;;;;;;5072452;28;20204;-86
2023/05/23 09:24:23;;;;;;;30.53;6.10;;;19.90;56.90;;;;;;5079903;28;20279;-86
2023/05/23 09:26:50;;;;;;;33.23;6.87;;;19.90;56.80;;;;;;5070149;28;20249;-85
2023/05/23 09:29:20;;;;;;;31.73;6.37;;;19.90;56.90;;;;;;5070738;28;20203;-86
2023/05/23 09:31:49;;;;;;;33.03;6.67;;;19.90;56.90;;;;;;5071140;28;20204;-86
2023/05/23 09:34:16;;;;;;;31.97;6.50;;;19.90;56.90;;;;;;5070542;28;20242;-86
2023/05/23 09:36:44;;;;;;;23.70;5.90;;;19.90;57.40;;;;;;5069951;28;20247;-86
2023/05/23 09:39:12;;;;;;;30.47;6.47;;;19.90;56.90;;;;;;5076110;28;20195;-86
2023/05/23 09:41:39;;;;;;;23.33;5.77;;;19.90;56.90;;;;;;5087435;28;20205;-86
2023/05/23 09:44:08;;;;;;;33.07;6.37;;;20.00;57.00;;;;;;5090476;28;20565;-86
2023/05/23 09:46:37;;;;;;;45.10;7.30;;;20.00;57.00;;;;;;5088575;28;20282;-86
2023/05/23 09:49:15;;;;;;;26.93;5.93;;;20.00;57.00;;;;;;5085056;28;20206;-85
2023/05/23 09:51:42;;;;;;;27.77;6.70;;;20.00;57.00;;;;;;5090561;28;20212;-86
2023/05/23 09:54:09;;;;;;;35.07;6.53;;;20.00;57.00;;;;;;5079146;28;20214;-86
2023/05/23 09:56:42;;;;;;;47.60;7.77;;;20.00;57.00;;;;;;5081315;28;20673;-86
2023/05/23 09:59:12;;;;;;;32.60;6.17;;;20.10;57.10;;;;;;5074945;28;20215;-87
2023/05/23 10:01:40;;;;;;;46.73;7.53;;;20.00;57.00;;;;;;5079447;28;20290;-87
2023/05/23 10:04:09;;;;;;;36.00;7.03;;;20.10;57.10;;;;;;5069577;28;20192;-85
2023/05/23 10:06:42;;;;;;;29.73;6.27;;;20.10;57.10;;;;;;5068980;28;20731;-85
2023/05/23 10:09:16;;;;;;;37.63;6.83;;;20.10;57.10;;;;;;5073902;28;20233;-87
2023/05/23 10:12:20;;;;;;;46.70;7.80;;;20.10;57.10;;;;;;5072803;28;20211;-87
2023/05/23 10:14:52;;;;;;;35.13;7.10;;;20.20;57.20;;;;;;5070267;28;20282;-86
2023/05/23 10:17:25;;;;;;;34.47;7.03;;;20.20;57.10;;;;;;5082284;28;20293;-87
2023/05/23 10:20:01;;;;;;;31.23;6.87;;;20.20;57.20;;;;;;5075141;28;20222;-86
2023/05/23 10:22:28;;;;;;;31.27;6.63;;;20.20;57.10;;;;;;5069712;28;20206;-89
2023/05/23 10:24:55;;;;;;;28.43;6.30;;;20.20;57.10;;;;;;5069270;28;20196;-87
2023/05/23 10:27:23;;;;;;;28.13;6.23;;;20.20;57.10;;;;;;5069220;28;20286;-87
2023/05/23 10:29:50;;;;;;;31.90;6.60;;;20.20;57.10;;;;;;5074727;28;20274;-86
2023/05/23 10:32:18;;;;;;;36.43;7.60;;;20.30;57.20;;;;;;5075629;28;20650;-88
2023/05/23 10:34:57;;;;;;;25.97;5.97;;;20.30;57.20;;;;;;5069149;28;20287;-86
2023/05/23 10:37:31;;;;;;;42.03;7.63;;;20.30;57.20;;;;;;5068852;28;20195;-87
2023/05/23 10:40:04;;;;;;;29.97;6.53;;;20.30;57.10;;;;;;5068994;28;20230;-86
2023/05/23 10:42:42;;;;;;;41.57;7.63;;;20.30;57.10;;;;;;5068927;28;20257;-86
2023/05/23 10:45:17;;;;;;;27.07;6.50;;;20.30;57.20;;;;;;5079866;28;20663;-85
2023/05/23 10:47:44;;;;;;;32.20;6.60;;;20.30;57.20;;;;;;5076760;28;20194;-86
2023/05/23 10:50:30;;;;;;;32.57;6.77;;;20.40;57.20;;;;;;5077955;28;21070;-86
2023/05/23 10:52:57;;;;;;;22.87;6.07;;;20.40;57.20;;;;;;5086248;28;20213;-86
2023/05/23 10:55:24;;;;;;;37.47;7.27;;;20.40;57.20;;;;;;5076019;28;20286;-87
2023/05/23 10:58:09;;;;;;;52.23;8.50;;;20.40;57.70;;;;;;5068698;28;20310;-85
2023/05/23 11:00:36;;;;;;;54.17;8.63;;;20.40;57.20;;;;;;5074920;28;20227;-86
2023/05/23 11:03:07;;;;;;;31.03;6.67;;;20.50;57.20;;;;;;5078789;28;20238;-85
2023/05/23 11:05:42;;;;;;;32.07;7.07;;;20.50;57.20;;;;;;5069988;28;20302;-86
2023/05/23 11:08:12;;;;;;;31.30;6.27;;;20.50;57.20;;;;;;5077424;28;20893;-85
2023/05/23 11:11:00;;;;;;;32.47;6.53;;;20.50;57.20;;;;;;5085611;28;20199;-84
2023/05/23 11:13:55;;;;;;;28.87;6.23;;;20.50;57.20;;;;;;5081976;28;20209;-86
2023/05/23 11:16:27;;;;;;;45.43;7.97;;;20.50;57.20;;;;;;5084360;28;20200;-85
2023/05/23 11:19:26;;;;;;;61.67;8.70;;;20.60;57.30;;;;;;5073446;28;20205;-85
2023/05/23 11:21:58;;;;;;;26.67;5.80;;;20.60;57.30;;;;;;5069075;28;20226;-87
2023/05/23 11:24:50;;;;;;;31.13;6.47;;;20.60;57.30;;;;;;5070597;28;20209;-86
2023/05/23 11:27:19;;;;;;;31.47;6.50;;;20.60;57.90;;;;;;5075372;28;20207;-85
2023/05/23 11:29:56;;;;;;;32.07;6.70;;;20.70;57.30;;;;;;5081716;28;20199;-85
2023/05/23 11:32:23;;;;;;;36.30;7.23;;;20.70;57.30;;;;;;5067481;28;20195;-85
2023/05/23 11:34:50;;;;;;;50.13;8.20;;;20.60;57.20;;;;;;5069457;28;20195;-85
2023/05/23 11:37:19;;;;;;;34.90;6.73;;;20.70;57.30;;;;;;5077100;28;20634;-85
2023/05/23 11:39:46;;;;;;;33.13;6.77;;;20.70;57.30;;;;;;5072157;28;20204;-85
2023/05/23 11:42:13;;;;;;;55.30;8.23;;;20.70;57.30;;;;;;5078857;28;20195;-85
2023/05/23 11:44:40;;;;;;;56.03;8.30;;;20.80;57.40;;;;;;5083319;28;20681;-85
2023/05/23 11:47:07;;;;;;;46.77;7.93;;;20.70;57.30;;;;;;5073538;28;20199;-87
2023/05/23 11:49:36;;;;;;;20.23;5.87;;;20.70;57.30;;;;;;5072856;28;20268;-85
2023/05/23 11:52:05;;;;;;;19.37;5.63;;;20.80;57.40;;;;;;5071261;28;20300;-86
2023/05/23 11:54:33;;;;;;;21.10;5.53;;;20.80;57.30;;;;;;5073662;28;21017;-85
2023/05/23 11:57:02;;;;;;;27.47;6.50;;;20.90;58.00;;;;;;5071095;28;20208;-85
2023/05/23 11:59:29;;;;;;;32.17;6.43;;;20.90;57.40;;;;;;5077113;28;20226;-85
2023/05/23 12:01:56;;;;;;;31.90;6.40;;;20.90;57.40;;;;;;5087224;28;20306;-86
2023/05/23 12:04:25;;;;;;;45.87;7.50;;;20.90;57.40;;;;;;5068989;28;20199;-83
2023/05/23 12:06:51;;;;;;;39.30;6.73;;;20.90;58.00;;;;;;5076133;28;20287;-85
2023/05/23 12:09:19;;;;;;;36.33;6.37;;;20.90;57.40;;;;;;5085629;28;20266;-84
2023/05/23 12:11:48;;;;;;;29.40;6.30;;;21.00;57.40;;;;;;5081883;28;20299;-84
2023/05/23 12:14:17;;;;;;;27.20;5.80;;;21.00;57.40;;;;;;5085452;28;20197;-84
2023/05/23 12:16:45;;;;;;;39.67;7.40;;;21.00;57.40;;;;;;5073543;28;20209;-83
2023/05/23 12:19:13;;;;;;;44.90;7.70;;;21.00;57.40;;;;;;5080771;28;20207;-84
2023/05/23 12:21:44;;;;;;;44.53;7.27;;;21.10;57.40;;;;;;5073201;28;20279;-84
2023/05/23 12:24:15;;;;;;;46.90;7.50;;;21.10;57.50;;;;;;5071851;28;20610;-84
2023/05/23 12:26:51;;;;;;;48.67;7.83;;;21.10;57.40;;;;;;5072934;28;20299;-84
2023/05/23 12:29:22;;;;;;;26.37;6.17;;;21.20;57.50;;;;;;5084093;28;20599;-87
2023/05/23 12:31:51;;;;;;;34.40;6.57;;;21.10;57.40;;;;;;5074763;28;20275;-85
2023/05/23 12:34:19;;;;;;;33.50;6.40;;;21.10;57.40;;;;;;5088192;28;20199;-85
2023/05/23 12:36:48;;;;;;;36.23;6.83;;;21.20;57.50;;;;;;5073625;28;20211;-87
2023/05/23 12:39:15;;;;;;;37.50;6.87;;;21.20;57.50;;;;;;5071874;28;21118;-85
2023/05/23 12:41:44;;;;;;;82.03;10.37;;;21.20;57.50;;;;;;5071871;28;20233;-86
2023/05/23 12:44:15;;;;;;;31.40;6.67;;;21.30;57.50;;;;;;5075707;28;20210;-86